Time;durP1;ratioP1;P1;durP2;ratioP2;P2;SDS_P1;SDS_P2;PMS_P1;PMS_P2;Temp;Humidity;BMP_temperature;BMP_pressure;BME280_temperature;BME280_humidity;BME280_pressure;Samples;Min_cycle;Max_cycle;Signal;HPM_P1;HPM_P2
2022/08/28 00:01:05;;;;;;;;;;;23.70;50.60;;;;;;5090884;28;19920;-62
2022/08/28 00:03:32;;;;;;;;;;;23.70;50.60;;;;;;5087652;28;19999;-62
2022/08/28 00:05:59;;;;;;;;;;;23.70;50.60;;;;;;5089272;28;20018;-62
2022/08/28 00:08:26;;;;;;;;;;;23.70;50.60;;;;;;5105123;28;19927;-62
2022/08/28 00:10:53;;;;;;;;;;;23.70;50.60;;;;;;5087799;28;19924;-62
2022/08/28 00:13:20;;;;;;;;;;;23.60;50.50;;;;;;5089452;28;19959;-62
2022/08/28 00:15:49;;;;;;;;;;;23.70;50.60;;;;;;5102176;28;19955;-62
2022/08/28 00:18:16;;;;;;;;;;;23.60;50.50;;;;;;5103393;28;19920;-60
2022/08/28 00:20:43;;;;;;;;;;;23.60;50.40;;;;;;5106425;27;19977;-62
2022/08/28 00:23:09;;;;;;;;;;;23.60;50.40;;;;;;5089376;28;19920;-61
2022/08/28 00:25:37;;;;;;;;;;;23.60;50.40;;;;;;5086852;28;19927;-62
2022/08/28 00:28:03;;;;;;;;;;;23.60;50.50;;;;;;5105894;28;19920;-62
2022/08/28 00:30:30;;;;;;;;;;;23.60;50.40;;;;;;5104291;28;19924;-60
2022/08/28 00:32:59;;;;;;;;;;;23.60;50.40;;;;;;5088237;28;19920;-61
2022/08/28 00:35:25;;;;;;;;;;;23.60;50.40;;;;;;5088996;28;20207;-61
2022/08/28 00:37:53;;;;;;;;;;;23.60;50.40;;;;;;5090808;28;19925;-61
2022/08/28 00:40:20;;;;;;;;;;;23.60;50.30;;;;;;5087903;28;19924;-61
2022/08/28 00:42:47;;;;;;;;;;;23.60;50.40;;;;;;5087663;28;19996;-61
2022/08/28 00:45:14;;;;;;;;;;;23.60;50.30;;;;;;5087052;28;19959;-61
2022/08/28 00:47:41;;;;;;;;;;;23.60;50.30;;;;;;5087489;28;19926;-61
2022/08/28 00:50:10;;;;;;;;;;;23.60;50.40;;;;;;5085970;28;19928;-61
2022/08/28 00:52:35;;;;;;;;;;;23.60;50.30;;;;;;5088170;28;19920;-62
2022/08/28 00:55:03;;;;;;;;;;;23.60;50.30;;;;;;5105383;28;20015;-63
2022/08/28 00:57:30;;;;;;;;;;;23.60;50.30;;;;;;5087306;28;19924;-62
2022/08/28 00:59:57;;;;;;;;;;;23.60;50.30;;;;;;5100961;28;19930;-62
2022/08/28 01:02:25;;;;;;;;;;;23.60;50.30;;;;;;5088508;28;19973;-62
2022/08/28 01:04:52;;;;;;;;;;;23.50;50.20;;;;;;5089730;28;19920;-62
2022/08/28 01:07:21;;;;;;;;;;;23.60;50.30;;;;;;5087293;28;19927;-61
2022/08/28 01:09:49;;;;;;;;;;;23.60;50.30;;;;;;5091586;28;19932;-61
2022/08/28 01:12:17;;;;;;;;;;;23.60;50.30;;;;;;5102755;28;19924;-61
2022/08/28 01:14:45;;;;;;;;;;;23.50;50.10;;;;;;5088218;28;19935;-61
2022/08/28 01:17:12;;;;;;;;;;;23.50;50.10;;;;;;5089632;28;19926;-61
2022/08/28 01:19:41;;;;;;;;;;;23.50;50.00;;;;;;5103747;28;19928;-62
2022/08/28 01:22:12;;;;;;;;;;;23.50;50.10;;;;;;5103846;28;19987;-62
2022/08/28 01:24:40;;;;;;;;;;;23.50;50.10;;;;;;5087916;28;20277;-62
2022/08/28 01:27:07;;;;;;;;;;;23.50;50.10;;;;;;5103766;28;19920;-62
2022/08/28 01:29:33;;;;;;;;;;;23.50;50.20;;;;;;5085525;28;19959;-62
2022/08/28 01:32:00;;;;;;;;;;;23.50;50.10;;;;;;5088073;28;20331;-62
2022/08/28 01:34:27;;;;;;;;;;;23.50;50.00;;;;;;5089528;28;19952;-62
2022/08/28 01:36:54;;;;;;;;;;;23.50;50.10;;;;;;5086045;28;20016;-62
2022/08/28 01:39:22;;;;;;;;;;;23.50;50.10;;;;;;5099880;28;19924;-63
2022/08/28 01:41:51;;;;;;;;;;;23.50;50.10;;;;;;5104810;28;19968;-62
2022/08/28 01:44:24;;;;;;;;;;;23.50;50.00;;;;;;5085243;28;19938;-62
2022/08/28 01:46:50;;;;;;;;;;;23.50;50.10;;;;;;5104115;28;19989;-62
2022/08/28 01:49:17;;;;;;;;;;;23.50;50.00;;;;;;5104668;28;19920;-63
2022/08/28 01:51:44;;;;;;;;;;;23.50;50.10;;;;;;5087792;28;19966;-62
2022/08/28 01:54:11;;;;;;;;;;;23.50;50.00;;;;;;5085824;28;19920;-62
2022/08/28 01:56:38;;;;;;;;;;;23.50;50.00;;;;;;5104936;28;19926;-62
2022/08/28 01:59:06;;;;;;;;;;;23.50;50.10;;;;;;5090099;28;20022;-62
2022/08/28 02:01:33;;;;;;;;;;;23.50;50.00;;;;;;5090031;28;20010;-62
2022/08/28 02:04:00;;;;;;;;;;;23.50;50.10;;;;;;5090151;28;20006;-62
2022/08/28 02:06:27;;;;;;;;;;;23.40;50.00;;;;;;5106007;28;19929;-62
2022/08/28 02:08:54;;;;;;;;;;;23.40;50.00;;;;;;5103583;28;19956;-62
2022/08/28 02:11:21;;;;;;;;;;;23.50;50.00;;;;;;5107345;28;20089;-62
2022/08/28 02:13:48;;;;;;;;;;;23.50;50.00;;;;;;5108574;28;19928;-62
2022/08/28 02:16:16;;;;;;;;;;;23.40;50.00;;;;;;5090965;28;19967;-62
2022/08/28 02:18:43;;;;;;;;;;;23.50;50.00;;;;;;5092393;28;19920;-62
2022/08/28 02:21:09;;;;;;;;;;;23.40;50.00;;;;;;5092333;28;19923;-62
2022/08/28 02:23:36;;;;;;;;;;;23.40;49.90;;;;;;5109673;27;19920;-62
2022/08/28 02:26:03;;;;;;;;;;;23.40;49.90;;;;;;5089219;28;19924;-62
2022/08/28 02:28:30;;;;;;;;;;;23.40;49.90;;;;;;5092784;28;19924;-62
2022/08/28 02:30:57;;;;;;;;;;;23.40;49.90;;;;;;5090583;28;19932;-62
2022/08/28 02:33:25;;;;;;;;;;;23.40;49.80;;;;;;5088253;28;19924;-61
2022/08/28 02:35:51;;;;;;;;;;;23.40;49.90;;;;;;5106295;28;19973;-60
2022/08/28 02:38:18;;;;;;;;;;;23.40;49.90;;;;;;5107316;27;19927;-61
2022/08/28 02:40:45;;;;;;;;;;;23.40;49.80;;;;;;5090768;28;19927;-60
2022/08/28 02:43:11;;;;;;;;;;;23.40;49.80;;;;;;5087938;28;19924;-61
2022/08/28 02:45:38;;;;;;;;;;;23.40;49.80;;;;;;5107316;28;20258;-60
2022/08/28 02:48:05;;;;;;;;;;;23.40;49.80;;;;;;5087311;28;20010;-60
2022/08/28 02:50:33;;;;;;;;;;;23.40;49.90;;;;;;5088902;28;20233;-60
2022/08/28 02:53:00;;;;;;;;;;;23.40;49.80;;;;;;5104421;27;20292;-60
2022/08/28 02:55:26;;;;;;;;;;;23.40;49.80;;;;;;5092478;28;19920;-61
2022/08/28 02:57:54;;;;;;;;;;;23.40;49.80;;;;;;5093558;28;19927;-61
2022/08/28 03:00:21;;;;;;;;;;;23.30;49.70;;;;;;5105140;27;19926;-60
2022/08/28 03:02:50;;;;;;;;;;;23.30;49.70;;;;;;5089528;28;20029;-60
2022/08/28 03:05:18;;;;;;;;;;;23.30;49.60;;;;;;5106897;27;20242;-61
2022/08/28 03:07:46;;;;;;;;;;;23.30;49.60;;;;;;5105713;28;19977;-60
2022/08/28 03:10:14;;;;;;;;;;;23.30;49.60;;;;;;5107120;28;19920;-60
2022/08/28 03:12:40;;;;;;;;;;;23.30;49.60;;;;;;5089985;28;19963;-60
2022/08/28 03:15:07;;;;;;;;;;;23.30;49.60;;;;;;5088806;28;19920;-60
2022/08/28 03:17:35;;;;;;;;;;;23.30;49.60;;;;;;5103679;28;19984;-60
2022/08/28 03:20:03;;;;;;;;;;;23.30;49.60;;;;;;5106929;28;19982;-60
2022/08/28 03:25:11;;;;;;;;;;;23.30;49.60;;;;;;5088017;28;20011;-61
2022/08/28 03:27:38;;;;;;;;;;;23.30;49.60;;;;;;5093481;28;19927;-61
2022/08/28 03:30:05;;;;;;;;;;;23.30;49.60;;;;;;5091286;28;19924;-61
2022/08/28 03:32:32;;;;;;;;;;;23.30;49.60;;;;;;5089624;28;19927;-60
2022/08/28 03:34:59;;;;;;;;;;;23.30;49.60;;;;;;5089682;28;19932;-61
2022/08/28 03:37:26;;;;;;;;;;;23.30;49.60;;;;;;5090314;28;20053;-60
2022/08/28 03:39:52;;;;;;;;;;;23.30;49.60;;;;;;5088340;28;19924;-61
2022/08/28 03:42:21;;;;;;;;;;;23.30;49.60;;;;;;5089479;28;19920;-61
2022/08/28 03:44:48;;;;;;;;;;;23.30;49.60;;;;;;5091885;28;19924;-60
2022/08/28 03:47:15;;;;;;;;;;;23.30;49.60;;;;;;5102430;28;19943;-61
2022/08/28 03:49:44;;;;;;;;;;;23.30;49.60;;;;;;5092217;28;19942;-61
2022/08/28 03:52:10;;;;;;;;;;;23.30;49.60;;;;;;5086801;28;19920;-60
2022/08/28 03:54:37;;;;;;;;;;;23.30;49.60;;;;;;5088968;28;19937;-60
2022/08/28 03:57:04;;;;;;;;;;;23.30;49.60;;;;;;5105127;28;19920;-60
2022/08/28 03:59:32;;;;;;;;;;;23.30;49.60;;;;;;5089074;28;19961;-60
2022/08/28 04:01:59;;;;;;;;;;;23.30;49.60;;;;;;5084412;28;19928;-60
2022/08/28 04:04:26;;;;;;;;;;;23.30;49.60;;;;;;5105876;28;19982;-61
2022/08/28 04:06:53;;;;;;;;;;;23.30;49.60;;;;;;5087220;28;19935;-61
2022/08/28 04:09:20;;;;;;;;;;;23.30;49.60;;;;;;5104837;28;19974;-60
2022/08/28 04:11:47;;;;;;;;;;;23.30;49.60;;;;;;5105523;28;19989;-61
2022/08/28 04:14:14;;;;;;;;;;;23.30;49.60;;;;;;5100658;28;19921;-61
2022/08/28 04:16:42;;;;;;;;;;;23.30;49.60;;;;;;5090635;28;19919;-60
2022/08/28 04:19:09;;;;;;;;;;;23.30;49.60;;;;;;5106612;27;19979;-61
2022/08/28 04:21:36;;;;;;;;;;;23.30;49.60;;;;;;5080731;28;19951;-61
2022/08/28 04:24:02;;;;;;;;;;;23.30;49.60;;;;;;5087538;28;19924;-60
2022/08/28 04:26:35;;;;;;;;;;;23.30;49.60;;;;;;5105288;28;20308;-60
2022/08/28 04:29:01;;;;;;;;;;;23.30;49.60;;;;;;5100960;28;19924;-61
2022/08/28 04:31:28;;;;;;;;;;;23.30;49.50;;;;;;5105308;28;19920;-61
2022/08/28 04:33:56;;;;;;;;;;;23.30;49.50;;;;;;5088397;28;20019;-60
2022/08/28 04:36:23;;;;;;;;;;;23.30;49.50;;;;;;5103851;28;19927;-61
2022/08/28 04:38:50;;;;;;;;;;;23.30;49.50;;;;;;5102223;28;19935;-60
2022/08/28 04:41:17;;;;;;;;;;;23.30;49.50;;;;;;5105449;28;19973;-61
2022/08/28 04:43:44;;;;;;;;;;;23.40;49.60;;;;;;5087477;28;20007;-60
2022/08/28 04:46:11;;;;;;;;;;;23.30;49.50;;;;;;5087293;28;20022;-61
2022/08/28 04:48:37;;;;;;;;;;;23.30;49.50;;;;;;5102833;28;20014;-61
2022/08/28 04:51:07;;;;;;;;;;;23.30;49.50;;;;;;5086724;28;20384;-61
2022/08/28 04:53:34;;;;;;;;;;;23.30;49.50;;;;;;5102290;28;19931;-61
2022/08/28 04:56:02;;;;;;;;;;;23.30;49.40;;;;;;5084344;28;19954;-60
2022/08/28 04:58:29;;;;;;;;;;;23.30;49.50;;;;;;5103087;28;20344;-60
2022/08/28 05:00:56;;;;;;;;;;;23.30;49.40;;;;;;5087908;28;19932;-61
2022/08/28 05:03:23;;;;;;;;;;;23.30;49.40;;;;;;5087919;28;19974;-60
2022/08/28 05:05:51;;;;;;;;;;;23.30;49.40;;;;;;5087139;28;19981;-61
2022/08/28 05:08:20;;;;;;;;;;;23.30;49.40;;;;;;5100866;28;19932;-60
2022/08/28 05:10:47;;;;;;;;;;;23.30;49.50;;;;;;5098307;28;20396;-60
2022/08/28 05:13:14;;;;;;;;;;;23.30;49.50;;;;;;5085611;28;19924;-61
2022/08/28 05:15:41;;;;;;;;;;;23.30;49.50;;;;;;5089625;28;20250;-60
2022/08/28 05:18:08;;;;;;;;;;;23.30;49.40;;;;;;5088022;28;20280;-61
2022/08/28 05:20:36;;;;;;;;;;;23.30;49.50;;;;;;5105056;28;20361;-61
2022/08/28 05:23:03;;;;;;;;;;;23.30;49.40;;;;;;5091142;28;19920;-61
2022/08/28 05:25:33;;;;;;;;;;;23.30;49.50;;;;;;5097155;28;19921;-61
2022/08/28 05:28:00;;;;;;;;;;;23.30;49.50;;;;;;5102333;28;19966;-61
2022/08/28 05:30:27;;;;;;;;;;;23.30;49.60;;;;;;5101039;28;19920;-61
2022/08/28 05:32:54;;;;;;;;;;;23.30;49.50;;;;;;5088771;28;19970;-61
2022/08/28 05:35:21;;;;;;;;;;;23.30;49.50;;;;;;5084554;28;19927;-61
2022/08/28 05:37:47;;;;;;;;;;;23.30;49.50;;;;;;5092114;28;19960;-61
2022/08/28 05:40:15;;;;;;;;;;;23.30;49.50;;;;;;5091030;28;19967;-61
2022/08/28 05:42:43;;;;;;;;;;;23.30;49.50;;;;;;5090567;28;19919;-61
2022/08/28 05:45:10;;;;;;;;;;;23.30;49.50;;;;;;5093109;28;19932;-61
2022/08/28 05:47:37;;;;;;;;;;;23.30;49.50;;;;;;5090999;28;20400;-61
2022/08/28 05:50:04;;;;;;;;;;;23.30;49.50;;;;;;5087472;28;19967;-61
2022/08/28 05:52:30;;;;;;;;;;;23.30;49.50;;;;;;5089255;28;19932;-62
2022/08/28 05:54:57;;;;;;;;;;;23.30;49.50;;;;;;5108465;28;20015;-61
2022/08/28 05:57:24;;;;;;;;;;;23.30;49.50;;;;;;5105779;28;19971;-61
2022/08/28 05:59:52;;;;;;;;;;;23.30;49.50;;;;;;5090616;28;19967;-62
2022/08/28 06:02:19;;;;;;;;;;;23.30;49.50;;;;;;5105922;28;19924;-61
2022/08/28 06:04:47;;;;;;;;;;;23.30;49.50;;;;;;5107400;28;20259;-61
2022/08/28 06:07:15;;;;;;;;;;;23.30;49.50;;;;;;5091579;28;19939;-61
2022/08/28 06:09:42;;;;;;;;;;;23.30;49.50;;;;;;5107918;28;19977;-61
2022/08/28 06:12:09;;;;;;;;;;;23.30;49.50;;;;;;5106493;28;19920;-61
2022/08/28 06:14:36;;;;;;;;;;;23.30;49.50;;;;;;5091033;28;19971;-61
2022/08/28 06:17:04;;;;;;;;;;;23.30;49.50;;;;;;5092213;28;19970;-61
2022/08/28 06:19:31;;;;;;;;;;;23.30;49.50;;;;;;5090652;28;19920;-61
2022/08/28 06:21:59;;;;;;;;;;;23.30;49.50;;;;;;5091016;28;19920;-61
2022/08/28 06:24:26;;;;;;;;;;;23.30;49.50;;;;;;5092414;28;19920;-61
2022/08/28 06:26:53;;;;;;;;;;;23.30;49.50;;;;;;5090140;28;19967;-61
2022/08/28 06:29:21;;;;;;;;;;;23.30;49.60;;;;;;5088314;28;20403;-61
2022/08/28 06:31:47;;;;;;;;;;;23.30;49.50;;;;;;5107264;28;19924;-61
2022/08/28 06:34:15;;;;;;;;;;;23.30;49.50;;;;;;5089993;28;19932;-61
2022/08/28 06:36:43;;;;;;;;;;;23.30;49.60;;;;;;5091200;28;19920;-61
2022/08/28 06:39:10;;;;;;;;;;;23.30;49.60;;;;;;5089027;28;19931;-61
2022/08/28 06:41:39;;;;;;;;;;;23.30;49.60;;;;;;5091717;28;19920;-61
2022/08/28 06:44:06;;;;;;;;;;;23.30;49.60;;;;;;5089648;28;19973;-61
2022/08/28 06:46:33;;;;;;;;;;;23.30;49.60;;;;;;5104295;27;19967;-61
2022/08/28 06:49:01;;;;;;;;;;;23.30;49.60;;;;;;5101756;28;19919;-61
2022/08/28 06:51:29;;;;;;;;;;;23.30;49.60;;;;;;5105791;28;19993;-61
2022/08/28 06:53:56;;;;;;;;;;;23.30;49.60;;;;;;5106509;28;19920;-61
2022/08/28 06:56:23;;;;;;;;;;;23.30;49.60;;;;;;5104570;27;19921;-61
2022/08/28 06:58:50;;;;;;;;;;;23.30;49.60;;;;;;5087980;28;19985;-61
2022/08/28 07:01:17;;;;;;;;;;;23.30;49.60;;;;;;5106805;27;19928;-61
2022/08/28 07:03:44;;;;;;;;;;;23.30;49.60;;;;;;5106068;28;19920;-61
2022/08/28 07:06:11;;;;;;;;;;;23.20;49.50;;;;;;5105916;27;19939;-61
2022/08/28 07:08:39;;;;;;;;;;;23.30;49.60;;;;;;5099398;28;20356;-61
2022/08/28 07:11:09;;;;;;;;;;;23.20;49.60;;;;;;5098357;28;20042;-61
2022/08/28 07:13:36;;;;;;;;;;;23.30;49.70;;;;;;5101809;28;19928;-61
2022/08/28 07:16:03;;;;;;;;;;;23.20;49.60;;;;;;5078527;28;20472;-61
2022/08/28 07:18:30;;;;;;;;;;;23.30;49.70;;;;;;5102038;28;19970;-61
2022/08/28 07:20:57;;;;;;;;;;;23.20;49.60;;;;;;5085407;28;20373;-61
2022/08/28 07:23:24;;;;;;;;;;;23.20;49.70;;;;;;5085375;28;19973;-61
2022/08/28 07:25:52;;;;;;;;;;;23.30;49.70;;;;;;5091936;28;20023;-61
2022/08/28 07:28:18;;;;;;;;;;;23.20;49.60;;;;;;5106628;28;20323;-61
2022/08/28 07:30:45;;;;;;;;;;;23.20;49.60;;;;;;5088816;28;20449;-61
2022/08/28 07:33:13;;;;;;;;;;;23.30;50.30;;;;;;5103092;28;19924;-61
2022/08/28 07:35:43;;;;;;;;;;;23.20;49.60;;;;;;5089677;28;19920;-61
2022/08/28 07:38:09;;;;;;;;;;;23.30;49.70;;;;;;5090366;28;19920;-61
2022/08/28 07:40:36;;;;;;;;;;;23.20;49.60;;;;;;5086473;28;19939;-61
2022/08/28 07:45:53;;;;;;;;;;;23.30;49.70;;;;;;5098514;28;19935;-61
2022/08/28 07:48:20;;;;;;;;;;;23.20;49.60;;;;;;5090564;28;19939;-61
2022/08/28 07:50:46;;;;;;;;;;;23.30;49.60;;;;;;5101477;27;20434;-59
2022/08/28 07:53:14;;;;;;;;;;;23.20;49.60;;;;;;5087071;28;20042;-61
2022/08/28 07:55:40;;;;;;;;;;;23.20;49.60;;;;;;5079139;28;19984;-61
2022/08/28 07:58:09;;;;;;;;;;;23.30;49.60;;;;;;5101726;28;19923;-62
2022/08/28 08:00:36;;;;;;;;;;;23.30;49.70;;;;;;5099355;28;19973;-61
2022/08/28 08:03:02;;;;;;;;;;;23.30;49.60;;;;;;5099613;28;19927;-61
2022/08/28 08:05:29;;;;;;;;;;;23.30;49.60;;;;;;5085518;28;20025;-61
2022/08/28 08:07:56;;;;;;;;;;;23.30;49.60;;;;;;5101426;27;19928;-61
2022/08/28 08:10:22;;;;;;;;;;;23.30;49.60;;;;;;5085525;28;19940;-61
2022/08/28 08:12:49;;;;;;;;;;;23.30;49.60;;;;;;5102350;28;20018;-61
2022/08/28 08:15:18;;;;;;;;;;;23.30;49.60;;;;;;5105620;27;19931;-61
2022/08/28 08:17:44;;;;;;;;;;;23.30;49.60;;;;;;5089821;28;19961;-61
2022/08/28 08:20:11;;;;;;;;;;;23.30;49.50;;;;;;5104020;28;20276;-62
2022/08/28 08:22:38;;;;;;;;;;;23.30;49.50;;;;;;5088757;28;20023;-61
2022/08/28 08:25:06;;;;;;;;;;;23.30;49.60;;;;;;5087788;28;19927;-62
2022/08/28 08:27:32;;;;;;;;;;;23.30;49.60;;;;;;5087983;28;19920;-61
2022/08/28 08:29:59;;;;;;;;;;;23.30;49.60;;;;;;5105403;28;19944;-62
2022/08/28 08:32:27;;;;;;;;;;;23.30;49.60;;;;;;5088035;28;19969;-61
2022/08/28 08:34:55;;;;;;;;;;;23.30;49.60;;;;;;5088878;28;19928;-62
2022/08/28 08:37:22;;;;;;;;;;;23.30;49.50;;;;;;5090410;28;19931;-62
2022/08/28 08:39:49;;;;;;;;;;;23.30;49.60;;;;;;5087285;28;19954;-61
2022/08/28 08:42:24;;;;;;;;;;;23.30;49.60;;;;;;5090177;28;19946;-61
2022/08/28 08:44:51;;;;;;;;;;;23.30;49.60;;;;;;5087481;28;19939;-61
2022/08/28 08:47:18;;;;;;;;;;;23.30;49.50;;;;;;5103249;28;19920;-62
2022/08/28 08:49:49;;;;;;;;;;;23.30;49.30;;;;;;5087646;28;19924;-62
2022/08/28 08:52:30;;;;;;;;;;;23.30;49.30;;;;;;5087040;28;19989;-62
2022/08/28 08:55:02;;;;;;;;;;;23.30;49.30;;;;;;5104436;28;20301;-61
2022/08/28 08:57:29;;;;;;;;;;;23.30;49.40;;;;;;5086041;28;19925;-62
2022/08/28 08:59:56;;;;;;;;;;;23.30;49.40;;;;;;5084097;28;20031;-61
2022/08/28 09:02:25;;;;;;;;;;;23.30;49.30;;;;;;5090223;28;19997;-61
2022/08/28 09:04:54;;;;;;;;;;;23.30;49.20;;;;;;5104408;28;20334;-62
2022/08/28 09:07:24;;;;;;;;;;;23.30;49.00;;;;;;5087910;28;20391;-62
2022/08/28 09:09:51;;;;;;;;;;;23.30;48.90;;;;;;5091001;28;19962;-61
2022/08/28 09:12:19;;;;;;;;;;;23.30;49.00;;;;;;5104600;28;19965;-61
2022/08/28 09:14:49;;;;;;;;;;;23.30;49.00;;;;;;5087739;28;20013;-61
2022/08/28 09:17:16;;;;;;;;;;;23.30;49.00;;;;;;5114798;27;19932;-61
2022/08/28 09:19:43;;;;;;;;;;;23.30;49.10;;;;;;5091695;28;19924;-61
2022/08/28 09:22:11;;;;;;;;;;;23.20;49.00;;;;;;5090166;28;19920;-61
2022/08/28 09:24:39;;;;;;;;;;;23.30;48.60;;;;;;5089546;28;19920;-60
2022/08/28 09:27:06;;;;;;;;;;;23.30;49.10;;;;;;5108723;27;19947;-61
2022/08/28 09:29:33;;;;;;;;;;;23.30;49.20;;;;;;5114868;27;19926;-60
2022/08/28 09:32:14;;;;;;;;;;;23.30;49.30;;;;;;5108620;27;19920;-61
2022/08/28 09:34:41;;;;;;;;;;;23.30;49.30;;;;;;5099424;28;19930;-60
2022/08/28 09:37:08;;;;;;;;;;;23.30;49.10;;;;;;5088224;28;20307;-63
2022/08/28 09:39:36;;;;;;;;;;;23.40;49.10;;;;;;5102131;28;19927;-61
2022/08/28 09:44:51;;;;;;;;;;;23.40;49.00;;;;;;5104423;28;19924;-65
2022/08/28 09:47:48;;;;;;;;;;;23.40;48.80;;;;;;5084024;28;19947;-64
2022/08/28 09:50:16;;;;;;;;;;;23.40;48.80;;;;;;5049637;28;19921;-64
2022/08/28 09:52:42;;;;;;;;;;;23.40;48.70;;;;;;5074446;28;19959;-64
2022/08/28 09:55:12;;;;;;;;;;;23.40;48.50;;;;;;5091148;28;19928;-64
2022/08/28 09:57:38;;;;;;;;;;;23.40;48.40;;;;;;5090549;28;19924;-64
2022/08/28 10:00:06;;;;;;;;;;;23.40;48.40;;;;;;5106240;28;20015;-65
2022/08/28 10:02:35;;;;;;;;;;;23.40;48.40;;;;;;5093135;28;19924;-63
2022/08/28 10:05:03;;;;;;;;;;;23.40;48.30;;;;;;5090228;28;19920;-62
2022/08/28 10:07:32;;;;;;;;;;;23.30;48.20;;;;;;5092162;28;19931;-62
2022/08/28 10:10:02;;;;;;;;;;;23.30;48.10;;;;;;5091923;28;19920;-61
2022/08/28 10:12:33;;;;;;;;;;;23.30;48.10;;;;;;5105690;28;20422;-62
2022/08/28 10:15:03;;;;;;;;;;;23.30;48.00;;;;;;5094065;28;19919;-62
2022/08/28 10:17:32;;;;;;;;;;;23.40;48.10;;;;;;5091818;28;19983;-62
2022/08/28 10:20:01;;;;;;;;;;;23.30;48.10;;;;;;5109250;27;19920;-62
2022/08/28 10:22:31;;;;;;;;;;;23.30;48.00;;;;;;5088472;28;19928;-62
2022/08/28 10:25:08;;;;;;;;;;;23.30;48.00;;;;;;5109026;27;19933;-61
2022/08/28 10:27:44;;;;;;;;;;;23.30;48.00;;;;;;5104865;28;20384;-62
2022/08/28 10:30:11;;;;;;;;;;;23.30;47.90;;;;;;5106509;28;19924;-61
2022/08/28 10:32:51;;;;;;;;;;;23.30;47.90;;;;;;5085208;28;19932;-61
2022/08/28 10:35:18;;;;;;;;;;;23.30;47.80;;;;;;5089433;28;20341;-61
2022/08/28 10:37:47;;;;;;;;;;;23.30;47.80;;;;;;5090890;28;20019;-60
2022/08/28 10:40:14;;;;;;;;;;;23.30;47.80;;;;;;5091846;28;20315;-61
2022/08/28 10:42:43;;;;;;;;;;;23.30;47.70;;;;;;5073667;28;19962;-60
2022/08/28 10:45:11;;;;;;;;;;;23.30;47.60;;;;;;5109992;27;19920;-60
2022/08/28 10:47:39;;;;;;;;;;;23.30;47.60;;;;;;5092211;28;19955;-61
2022/08/28 10:50:07;;;;;;;;;;;23.30;47.60;;;;;;5099473;28;19927;-61
2022/08/28 10:52:35;;;;;;;;;;;23.30;47.60;;;;;;5088381;28;20358;-60
2022/08/28 10:55:03;;;;;;;;;;;23.30;47.60;;;;;;5118384;27;19959;-61
2022/08/28 10:57:31;;;;;;;;;;;23.30;47.60;;;;;;5112398;27;19928;-61
2022/08/28 10:59:59;;;;;;;;;;;23.30;47.70;;;;;;5101212;28;20015;-61
2022/08/28 11:02:26;;;;;;;;;;;23.40;47.70;;;;;;5108990;28;19924;-61
2022/08/28 11:04:53;;;;;;;;;;;23.30;47.60;;;;;;5088900;28;19951;-61
2022/08/28 11:07:22;;;;;;;;;;;23.30;47.50;;;;;;5091338;28;19974;-60
2022/08/28 11:09:49;;;;;;;;;;;23.30;47.50;;;;;;5096885;28;20335;-61
2022/08/28 11:12:33;;;;;;;;;;;23.30;47.40;;;;;;5092905;28;20004;-61
2022/08/28 11:15:01;;;;;;;;;;;23.30;47.40;;;;;;5111269;27;19993;-60
2022/08/28 11:17:34;;;;;;;;;;;23.30;47.30;;;;;;5090610;28;19967;-61
2022/08/28 11:20:07;;;;;;;;;;;23.30;47.30;;;;;;5090297;28;19971;-61
2022/08/28 11:22:35;;;;;;;;;;;23.30;47.30;;;;;;5091324;28;19926;-61
2022/08/28 11:25:03;;;;;;;;;;;23.30;47.30;;;;;;5102504;28;19949;-61
2022/08/28 11:27:32;;;;;;;;;;;23.30;47.30;;;;;;5108277;28;19926;-61
2022/08/28 11:30:30;;;;;;;;;;;23.30;47.30;;;;;;5108337;28;19977;-61
2022/08/28 11:32:59;;;;;;;;;;;23.30;47.20;;;;;;5071292;28;19931;-60
2022/08/28 11:35:36;;;;;;;;;;;23.30;47.20;;;;;;5089283;28;19920;-61
2022/08/28 11:38:03;;;;;;;;;;;23.30;47.10;;;;;;5081010;28;19970;-60
2022/08/28 11:41:00;;;;;;;;;;;23.30;47.00;;;;;;5089885;28;20014;-61
2022/08/28 11:43:36;;;;;;;;;;;23.30;47.10;;;;;;4999312;28;19956;-60
2022/08/28 11:46:13;;;;;;;;;;;23.30;47.10;;;;;;5076542;28;19955;-60
2022/08/28 11:48:51;;;;;;;;;;;23.30;47.00;;;;;;5089043;28;19928;-60
2022/08/28 11:51:36;;;;;;;;;;;23.30;47.00;;;;;;5110990;27;19920;-60
2022/08/28 11:54:04;;;;;;;;;;;23.30;47.00;;;;;;5107485;28;19959;-61
2022/08/28 11:56:36;;;;;;;;;;;23.30;47.00;;;;;;5106161;27;19950;-60
2022/08/28 11:59:09;;;;;;;;;;;23.30;46.80;;;;;;5105977;28;19920;-61
2022/08/28 12:01:36;;;;;;;;;;;23.30;46.80;;;;;;5098887;28;19920;-61
2022/08/28 12:04:04;;;;;;;;;;;23.30;46.80;;;;;;5099951;28;19924;-61
2022/08/28 12:06:54;;;;;;;;;;;23.30;46.80;;;;;;5105535;28;19920;-60
2022/08/28 12:09:37;;;;;;;;;;;23.30;46.70;;;;;;5111709;28;19920;-61
2022/08/28 12:12:05;;;;;;;;;;;23.30;46.60;;;;;;5071790;28;19920;-61
2022/08/28 12:15:03;;;;;;;;;;;23.30;46.60;;;;;;5076031;28;19928;-61
2022/08/28 12:17:49;;;;;;;;;;;23.30;46.60;;;;;;5104943;28;19920;-61
2022/08/28 12:20:20;;;;;;;;;;;23.30;46.50;;;;;;5086797;28;20373;-61
2022/08/28 12:22:48;;;;;;;;;;;23.30;46.40;;;;;;5105930;28;19942;-61
2022/08/28 12:25:19;;;;;;;;;;;23.30;46.30;;;;;;5104906;28;19920;-61
2022/08/28 12:27:47;;;;;;;;;;;23.30;46.20;;;;;;5099271;28;19926;-60
2022/08/28 12:30:13;;;;;;;;;;;23.30;46.10;;;;;;5087541;28;19920;-61
2022/08/28 12:32:40;;;;;;;;;;;23.30;46.10;;;;;;5103720;28;19998;-61
2022/08/28 12:35:09;;;;;;;;;;;23.30;46.20;;;;;;5095094;28;20430;-60
2022/08/28 12:37:39;;;;;;;;;;;23.30;46.10;;;;;;5127217;27;20372;-60
2022/08/28 12:40:12;;;;;;;;;;;23.30;46.00;;;;;;5060000;28;20006;-61
2022/08/28 12:42:40;;;;;;;;;;;23.30;46.00;;;;;;5089237;28;19924;-61
2022/08/28 12:45:07;;;;;;;;;;;23.30;46.20;;;;;;5083476;28;19920;-61
2022/08/28 12:47:34;;;;;;;;;;;23.30;46.20;;;;;;5088772;28;19981;-60
2022/08/28 12:50:16;;;;;;;;;;;23.30;46.30;;;;;;5084910;28;20377;-61
2022/08/28 12:52:48;;;;;;;;;;;23.30;46.20;;;;;;5088113;28;19935;-60
2022/08/28 12:55:15;;;;;;;;;;;23.30;46.30;;;;;;5097689;28;19931;-60
2022/08/28 12:57:44;;;;;;;;;;;23.30;46.30;;;;;;5089929;28;20543;-60
2022/08/28 13:00:15;;;;;;;;;;;23.30;46.30;;;;;;5090364;28;19920;-60
2022/08/28 13:02:42;;;;;;;;;;;23.30;46.20;;;;;;5104451;28;20323;-60
2022/08/28 13:05:10;;;;;;;;;;;23.30;46.30;;;;;;5086439;28;19977;-61
2022/08/28 13:07:38;;;;;;;;;;;23.30;46.40;;;;;;5088060;28;19963;-61
2022/08/28 13:10:07;;;;;;;;;;;23.30;46.40;;;;;;5085216;28;19920;-61
2022/08/28 13:12:34;;;;;;;;;;;23.30;46.40;;;;;;5088845;28;20377;-61
2022/08/28 13:15:01;;;;;;;;;;;23.30;46.40;;;;;;5077671;28;19924;-60
2022/08/28 13:17:44;;;;;;;;;;;23.40;46.40;;;;;;5106251;28;19935;-60
2022/08/28 13:20:11;;;;;;;;;;;23.30;46.30;;;;;;5085274;28;19924;-61
2022/08/28 13:22:39;;;;;;;;;;;23.30;46.70;;;;;;5104269;28;19920;-60
2022/08/28 13:25:07;;;;;;;;;;;23.40;46.50;;;;;;5103070;28;19932;-61
2022/08/28 13:27:34;;;;;;;;;;;23.40;46.60;;;;;;5089993;28;20014;-61
2022/08/28 13:30:02;;;;;;;;;;;23.40;46.70;;;;;;5086900;28;19973;-60
2022/08/28 13:32:29;;;;;;;;;;;23.40;46.70;;;;;;5087998;28;19927;-60
2022/08/28 13:35:05;;;;;;;;;;;23.40;46.70;;;;;;5101916;28;20025;-60
2022/08/28 13:37:42;;;;;;;;;;;23.40;46.60;;;;;;5101164;28;19924;-61
2022/08/28 13:40:11;;;;;;;;;;;23.40;46.50;;;;;;5088162;28;19931;-61
2022/08/28 13:42:38;;;;;;;;;;;23.40;46.30;;;;;;5107781;28;19931;-60
2022/08/28 13:45:05;;;;;;;;;;;23.40;46.20;;;;;;5098150;28;20365;-61
2022/08/28 13:47:32;;;;;;;;;;;23.40;46.20;;;;;;5105327;28;19920;-61
2022/08/28 13:49:58;;;;;;;;;;;23.40;46.10;;;;;;5083932;28;19986;-61
2022/08/28 13:52:25;;;;;;;;;;;23.40;46.10;;;;;;5088331;28;20319;-61
2022/08/28 13:54:52;;;;;;;;;;;23.40;46.00;;;;;;5088174;28;19951;-61
2022/08/28 13:57:20;;;;;;;;;;;23.40;46.00;;;;;;5105987;28;19987;-62
2022/08/28 13:59:47;;;;;;;;;;;23.40;46.10;;;;;;5085225;28;20019;-61
2022/08/28 14:04:58;;;;;;;;;;;23.40;46.20;;;;;;5086840;28;19920;-61
2022/08/28 14:07:24;;;;;;;;;;;23.40;46.20;;;;;;5107589;28;19924;-61
2022/08/28 14:09:51;;;;;;;;;;;23.40;46.20;;;;;;5080184;28;19932;-61
2022/08/28 14:12:19;;;;;;;;;;;23.40;46.10;;;;;;5104276;28;20496;-61
2022/08/28 14:14:47;;;;;;;;;;;23.40;46.10;;;;;;5107243;28;19963;-61
2022/08/28 14:17:14;;;;;;;;;;;23.40;45.80;;;;;;5088580;28;19979;-61
2022/08/28 14:19:41;;;;;;;;;;;23.40;45.90;;;;;;5092281;28;19943;-61
2022/08/28 14:22:07;;;;;;;;;;;23.40;46.50;;;;;;5090188;28;19920;-61
2022/08/28 14:24:34;;;;;;;;;;;23.40;45.90;;;;;;5094271;28;19959;-61
2022/08/28 14:27:01;;;;;;;;;;;23.40;45.60;;;;;;5093559;28;20023;-61
2022/08/28 14:29:30;;;;;;;;;;;23.40;45.40;;;;;;5091567;28;20031;-61
2022/08/28 14:31:57;;;;;;;;;;;23.40;45.40;;;;;;5094377;28;19955;-61
2022/08/28 14:34:24;;;;;;;;;;;23.40;45.50;;;;;;5113652;27;19935;-61